< < Back
Terminal Aerodrome Forecast


Current Version              Previous Versions:   1  2  3  4  5  6  7  8  9  

Terminal Aerodrome Forecast

982
FTUS42 KJAX 291129
TAFSSI
TAF
KSSI 291129Z 2912/3012 26005KT 3SM BR BKN003
     FM291300 26005KT P6SM SCT007 BKN010
     FM291400 26006KT P6SM FEW040
     FM291700 13010KT P6SM SCT050=

Latest METAR

682
SAUS70 KWBC 300300 RRB
MTRSSI
METAR KSSI 300253Z AUTO 17004KT 10SM CLR 23/22 A2998 RMK AO2 SLP154
T02330222 52016


USA.gov is the U.S. government's official web portal to all federal, state and local government web resources and services.